sensor_id;sensor_type;location;lat;lon;timestamp;P1;durP1;ratioP1;P2;durP2;ratioP2
76256;SDS011;65074;50.436;8.672;2023-09-30T00:01:44;5.95;;;2.38;;
76256;SDS011;65074;50.436;8.672;2023-09-30T00:04:10;3.85;;;2.17;;
76256;SDS011;65074;50.436;8.672;2023-09-30T00:06:36;5.43;;;2.47;;
76256;SDS011;65074;50.436;8.672;2023-09-30T00:09:02;5.10;;;2.95;;
76256;SDS011;65074;50.436;8.672;2023-09-30T00:11:28;5.72;;;2.10;;
76256;SDS011;65074;50.436;8.672;2023-09-30T00:13:53;4.28;;;2.65;;
76256;SDS011;65074;50.436;8.672;2023-09-30T00:16:19;5.60;;;2.75;;
76256;SDS011;65074;50.436;8.672;2023-09-30T00:18:44;5.95;;;2.95;;
76256;SDS011;65074;50.436;8.672;2023-09-30T00:21:10;3.78;;;2.35;;
76256;SDS011;65074;50.436;8.672;2023-09-30T00:23:36;5.88;;;2.38;;
76256;SDS011;65074;50.436;8.672;2023-09-30T00:26:02;6.20;;;3.17;;
76256;SDS011;65074;50.436;8.672;2023-09-30T00:28:27;5.72;;;2.67;;
76256;SDS011;65074;50.436;8.672;2023-09-30T00:30:53;6.55;;;3.05;;
76256;SDS011;65074;50.436;8.672;2023-09-30T00:33:20;7.40;;;3.08;;
76256;SDS011;65074;50.436;8.672;2023-09-30T00:35:45;7.35;;;3.30;;
76256;SDS011;65074;50.436;8.672;2023-09-30T00:38:11;4.65;;;2.38;;
76256;SDS011;65074;50.436;8.672;2023-09-30T00:40:37;3.38;;;2.70;;
76256;SDS011;65074;50.436;8.672;2023-09-30T00:43:02;6.35;;;3.22;;
76256;SDS011;65074;50.436;8.672;2023-09-30T00:45:28;5.75;;;3.13;;
76256;SDS011;65074;50.436;8.672;2023-09-30T00:47:54;3.10;;;2.20;;
76256;SDS011;65074;50.436;8.672;2023-09-30T00:50:20;5.43;;;2.38;;
76256;SDS011;65074;50.436;8.672;2023-09-30T00:52:46;5.28;;;3.30;;
76256;SDS011;65074;50.436;8.672;2023-09-30T00:55:13;5.05;;;2.30;;
76256;SDS011;65074;50.436;8.672;2023-09-30T00:57:40;8.30;;;2.58;;
76256;SDS011;65074;50.436;8.672;2023-09-30T01:00:06;8.95;;;3.05;;
76256;SDS011;65074;50.436;8.672;2023-09-30T01:02:32;5.80;;;3.10;;
76256;SDS011;65074;50.436;8.672;2023-09-30T01:04:59;4.82;;;2.38;;
76256;SDS011;65074;50.436;8.672;2023-09-30T01:07:26;3.40;;;2.47;;
76256;SDS011;65074;50.436;8.672;2023-09-30T01:09:52;5.75;;;2.83;;
76256;SDS011;65074;50.436;8.672;2023-09-30T01:12:18;5.28;;;2.92;;
76256;SDS011;65074;50.436;8.672;2023-09-30T01:14:43;5.85;;;3.22;;
76256;SDS011;65074;50.436;8.672;2023-09-30T01:17:08;4.55;;;2.88;;
76256;SDS011;65074;50.436;8.672;2023-09-30T01:19:36;8.25;;;3.53;;
76256;SDS011;65074;50.436;8.672;2023-09-30T01:22:02;7.43;;;2.60;;
76256;SDS011;65074;50.436;8.672;2023-09-30T01:24:31;8.15;;;2.85;;
76256;SDS011;65074;50.436;8.672;2023-09-30T01:27:02;6.38;;;3.35;;
76256;SDS011;65074;50.436;8.672;2023-09-30T01:29:28;3.30;;;2.42;;
76256;SDS011;65074;50.436;8.672;2023-09-30T01:31:53;6.00;;;2.88;;
76256;SDS011;65074;50.436;8.672;2023-09-30T01:34:19;6.72;;;3.40;;
76256;SDS011;65074;50.436;8.672;2023-09-30T01:36:44;4.80;;;3.17;;
76256;SDS011;65074;50.436;8.672;2023-09-30T01:39:10;5.68;;;3.50;;
76256;SDS011;65074;50.436;8.672;2023-09-30T01:41:40;10.38;;;3.17;;
76256;SDS011;65074;50.436;8.672;2023-09-30T01:44:06;7.18;;;4.07;;
76256;SDS011;65074;50.436;8.672;2023-09-30T01:46:32;5.55;;;2.75;;
76256;SDS011;65074;50.436;8.672;2023-09-30T01:48:59;7.05;;;3.63;;
76256;SDS011;65074;50.436;8.672;2023-09-30T01:51:24;5.78;;;3.45;;
76256;SDS011;65074;50.436;8.672;2023-09-30T01:53:50;4.25;;;2.80;;
76256;SDS011;65074;50.436;8.672;2023-09-30T01:56:16;5.82;;;3.38;;
76256;SDS011;65074;50.436;8.672;2023-09-30T01:58:41;6.82;;;3.35;;
76256;SDS011;65074;50.436;8.672;2023-09-30T02:01:06;5.68;;;3.42;;
76256;SDS011;65074;50.436;8.672;2023-09-30T02:03:32;8.73;;;3.97;;
76256;SDS011;65074;50.436;8.672;2023-09-30T02:05:57;6.82;;;2.78;;
76256;SDS011;65074;50.436;8.672;2023-09-30T02:08:23;5.88;;;2.78;;
76256;SDS011;65074;50.436;8.672;2023-09-30T02:10:49;6.90;;;4.03;;
76256;SDS011;65074;50.436;8.672;2023-09-30T02:13:17;4.35;;;2.38;;
76256;SDS011;65074;50.436;8.672;2023-09-30T02:15:43;11.43;;;3.25;;
76256;SDS011;65074;50.436;8.672;2023-09-30T02:18:09;4.50;;;2.80;;
76256;SDS011;65074;50.436;8.672;2023-09-30T02:20:35;6.05;;;3.53;;
76256;SDS011;65074;50.436;8.672;2023-09-30T02:23:11;6.40;;;3.17;;
76256;SDS011;65074;50.436;8.672;2023-09-30T02:25:37;6.20;;;3.17;;
76256;SDS011;65074;50.436;8.672;2023-09-30T02:28:03;4.68;;;2.80;;
76256;SDS011;65074;50.436;8.672;2023-09-30T02:30:29;5.93;;;3.50;;
76256;SDS011;65074;50.436;8.672;2023-09-30T02:32:56;6.40;;;3.55;;
76256;SDS011;65074;50.436;8.672;2023-09-30T02:35:22;4.35;;;3.05;;
76256;SDS011;65074;50.436;8.672;2023-09-30T02:37:47;4.55;;;2.90;;
76256;SDS011;65074;50.436;8.672;2023-09-30T02:40:14;7.28;;;3.10;;
76256;SDS011;65074;50.436;8.672;2023-09-30T02:42:42;6.40;;;2.88;;
76256;SDS011;65074;50.436;8.672;2023-09-30T02:45:08;7.07;;;3.42;;
76256;SDS011;65074;50.436;8.672;2023-09-30T02:47:34;4.95;;;2.75;;
76256;SDS011;65074;50.436;8.672;2023-09-30T02:50:00;7.07;;;3.10;;
76256;SDS011;65074;50.436;8.672;2023-09-30T02:52:25;5.22;;;3.00;;
76256;SDS011;65074;50.436;8.672;2023-09-30T02:54:51;5.13;;;2.80;;
76256;SDS011;65074;50.436;8.672;2023-09-30T02:57:17;5.63;;;3.13;;
76256;SDS011;65074;50.436;8.672;2023-09-30T02:59:43;5.55;;;3.30;;
76256;SDS011;65074;50.436;8.672;2023-09-30T03:02:09;4.70;;;2.40;;
76256;SDS011;65074;50.436;8.672;2023-09-30T03:04:36;5.72;;;2.83;;
76256;SDS011;65074;50.436;8.672;2023-09-30T03:07:01;4.95;;;3.15;;
76256;SDS011;65074;50.436;8.672;2023-09-30T03:09:27;5.60;;;2.97;;
76256;SDS011;65074;50.436;8.672;2023-09-30T03:11:52;5.80;;;2.88;;
76256;SDS011;65074;50.436;8.672;2023-09-30T03:14:21;5.55;;;2.85;;
76256;SDS011;65074;50.436;8.672;2023-09-30T03:16:47;7.72;;;3.45;;
76256;SDS011;65074;50.436;8.672;2023-09-30T03:19:13;4.53;;;2.80;;
76256;SDS011;65074;50.436;8.672;2023-09-30T03:21:41;7.28;;;3.63;;
76256;SDS011;65074;50.436;8.672;2023-09-30T03:24:07;8.00;;;3.53;;
76256;SDS011;65074;50.436;8.672;2023-09-30T03:26:33;4.70;;;2.97;;
76256;SDS011;65074;50.436;8.672;2023-09-30T03:28:58;6.22;;;3.35;;
76256;SDS011;65074;50.436;8.672;2023-09-30T03:31:24;7.78;;;3.00;;
76256;SDS011;65074;50.436;8.672;2023-09-30T03:33:50;4.65;;;2.88;;
76256;SDS011;65074;50.436;8.672;2023-09-30T03:36:19;8.02;;;3.33;;
76256;SDS011;65074;50.436;8.672;2023-09-30T03:38:45;7.30;;;3.88;;
76256;SDS011;65074;50.436;8.672;2023-09-30T03:41:10;5.78;;;3.42;;
76256;SDS011;65074;50.436;8.672;2023-09-30T03:43:38;8.20;;;3.00;;
76256;SDS011;65074;50.436;8.672;2023-09-30T03:46:06;4.38;;;3.30;;
76256;SDS011;65074;50.436;8.672;2023-09-30T03:48:32;10.40;;;3.17;;
76256;SDS011;65074;50.436;8.672;2023-09-30T03:51:13;10.43;;;4.10;;
76256;SDS011;65074;50.436;8.672;2023-09-30T03:56:08;4.47;;;2.65;;
76256;SDS011;65074;50.436;8.672;2023-09-30T03:58:36;5.80;;;2.50;;
76256;SDS011;65074;50.436;8.672;2023-09-30T04:01:03;7.10;;;3.38;;
76256;SDS011;65074;50.436;8.672;2023-09-30T04:03:29;5.25;;;2.88;;
76256;SDS011;65074;50.436;8.672;2023-09-30T04:05:55;6.07;;;3.13;;
76256;SDS011;65074;50.436;8.672;2023-09-30T04:08:20;10.57;;;3.38;;
76256;SDS011;65074;50.436;8.672;2023-09-30T04:10:47;5.70;;;2.72;;
76256;SDS011;65074;50.436;8.672;2023-09-30T04:13:12;5.80;;;3.35;;
76256;SDS011;65074;50.436;8.672;2023-09-30T04:15:38;7.38;;;3.53;;
76256;SDS011;65074;50.436;8.672;2023-09-30T04:18:04;6.47;;;3.72;;
76256;SDS011;65074;50.436;8.672;2023-09-30T04:20:32;5.55;;;3.38;;
76256;SDS011;65074;50.436;8.672;2023-09-30T04:22:58;4.60;;;3.28;;
76256;SDS011;65074;50.436;8.672;2023-09-30T04:25:24;8.93;;;3.40;;
76256;SDS011;65074;50.436;8.672;2023-09-30T04:27:50;6.93;;;2.92;;
76256;SDS011;65074;50.436;8.672;2023-09-30T04:30:15;6.18;;;3.38;;
76256;SDS011;65074;50.436;8.672;2023-09-30T04:32:41;5.70;;;2.58;;
76256;SDS011;65074;50.436;8.672;2023-09-30T04:35:07;7.35;;;4.40;;
76256;SDS011;65074;50.436;8.672;2023-09-30T04:37:33;5.03;;;3.20;;
76256;SDS011;65074;50.436;8.672;2023-09-30T04:40:00;7.35;;;3.97;;
76256;SDS011;65074;50.436;8.672;2023-09-30T04:42:26;4.75;;;3.33;;
76256;SDS011;65074;50.436;8.672;2023-09-30T04:44:52;4.53;;;3.05;;
76256;SDS011;65074;50.436;8.672;2023-09-30T04:47:19;4.95;;;2.75;;
76256;SDS011;65074;50.436;8.672;2023-09-30T04:49:44;4.72;;;3.05;;
76256;SDS011;65074;50.436;8.672;2023-09-30T04:52:10;7.35;;;3.80;;
76256;SDS011;65074;50.436;8.672;2023-09-30T04:54:36;5.28;;;3.60;;
76256;SDS011;65074;50.436;8.672;2023-09-30T04:57:02;3.65;;;2.75;;
76256;SDS011;65074;50.436;8.672;2023-09-30T04:59:27;4.53;;;2.72;;
76256;SDS011;65074;50.436;8.672;2023-09-30T05:01:53;5.43;;;3.55;;
76256;SDS011;65074;50.436;8.672;2023-09-30T05:04:19;6.68;;;2.95;;
76256;SDS011;65074;50.436;8.672;2023-09-30T05:06:44;6.05;;;3.40;;
76256;SDS011;65074;50.436;8.672;2023-09-30T05:09:10;5.25;;;3.00;;
76256;SDS011;65074;50.436;8.672;2023-09-30T05:11:35;9.88;;;3.30;;
76256;SDS011;65074;50.436;8.672;2023-09-30T05:14:00;8.10;;;3.47;;
76256;SDS011;65074;50.436;8.672;2023-09-30T05:16:26;9.52;;;3.53;;
76256;SDS011;65074;50.436;8.672;2023-09-30T05:18:52;5.65;;;3.33;;
76256;SDS011;65074;50.436;8.672;2023-09-30T05:21:17;7.78;;;3.47;;
76256;SDS011;65074;50.436;8.672;2023-09-30T05:23:43;7.78;;;3.88;;
76256;SDS011;65074;50.436;8.672;2023-09-30T05:26:08;5.72;;;3.45;;
76256;SDS011;65074;50.436;8.672;2023-09-30T05:28:33;6.88;;;3.45;;
76256;SDS011;65074;50.436;8.672;2023-09-30T05:30:59;8.73;;;4.20;;
76256;SDS011;65074;50.436;8.672;2023-09-30T05:33:26;6.35;;;3.83;;
76256;SDS011;65074;50.436;8.672;2023-09-30T05:35:53;7.18;;;3.70;;
76256;SDS011;65074;50.436;8.672;2023-09-30T05:38:19;6.80;;;3.42;;
76256;SDS011;65074;50.436;8.672;2023-09-30T05:40:45;5.93;;;3.53;;
76256;SDS011;65074;50.436;8.672;2023-09-30T05:43:11;5.45;;;2.95;;
76256;SDS011;65074;50.436;8.672;2023-09-30T05:45:39;5.30;;;3.33;;
76256;SDS011;65074;50.436;8.672;2023-09-30T05:48:05;7.00;;;3.45;;
76256;SDS011;65074;50.436;8.672;2023-09-30T05:50:32;7.00;;;3.83;;
76256;SDS011;65074;50.436;8.672;2023-09-30T05:52:59;7.00;;;3.80;;
76256;SDS011;65074;50.436;8.672;2023-09-30T05:55:24;6.78;;;3.13;;
76256;SDS011;65074;50.436;8.672;2023-09-30T05:57:50;6.30;;;3.00;;
76256;SDS011;65074;50.436;8.672;2023-09-30T06:00:17;7.95;;;3.33;;
76256;SDS011;65074;50.436;8.672;2023-09-30T06:02:55;4.13;;;2.58;;
76256;SDS011;65074;50.436;8.672;2023-09-30T06:05:24;4.97;;;2.88;;
76256;SDS011;65074;50.436;8.672;2023-09-30T06:07:55;5.15;;;3.25;;
76256;SDS011;65074;50.436;8.672;2023-09-30T06:10:20;5.70;;;3.22;;
76256;SDS011;65074;50.436;8.672;2023-09-30T06:12:46;6.85;;;2.97;;
76256;SDS011;65074;50.436;8.672;2023-09-30T06:15:20;6.95;;;3.50;;
76256;SDS011;65074;50.436;8.672;2023-09-30T06:17:50;6.68;;;2.83;;
76256;SDS011;65074;50.436;8.672;2023-09-30T06:20:19;4.70;;;2.75;;
76256;SDS011;65074;50.436;8.672;2023-09-30T06:22:47;9.32;;;3.65;;
76256;SDS011;65074;50.436;8.672;2023-09-30T06:25:16;7.15;;;3.35;;
76256;SDS011;65074;50.436;8.672;2023-09-30T06:27:45;6.28;;;3.33;;
76256;SDS011;65074;50.436;8.672;2023-09-30T06:30:11;6.07;;;3.60;;
76256;SDS011;65074;50.436;8.672;2023-09-30T06:32:38;6.50;;;3.05;;
76256;SDS011;65074;50.436;8.672;2023-09-30T06:35:04;5.10;;;3.10;;
76256;SDS011;65074;50.436;8.672;2023-09-30T06:37:31;6.25;;;2.47;;
76256;SDS011;65074;50.436;8.672;2023-09-30T06:39:57;7.47;;;3.15;;
76256;SDS011;65074;50.436;8.672;2023-09-30T06:42:23;9.25;;;3.90;;
76256;SDS011;65074;50.436;8.672;2023-09-30T06:44:49;8.52;;;4.68;;
76256;SDS011;65074;50.436;8.672;2023-09-30T06:47:14;6.85;;;3.40;;
76256;SDS011;65074;50.436;8.672;2023-09-30T06:49:40;4.57;;;3.70;;
76256;SDS011;65074;50.436;8.672;2023-09-30T06:52:05;5.22;;;2.80;;
76256;SDS011;65074;50.436;8.672;2023-09-30T06:54:31;4.22;;;2.55;;
76256;SDS011;65074;50.436;8.672;2023-09-30T06:56:57;5.38;;;3.38;;
76256;SDS011;65074;50.436;8.672;2023-09-30T06:59:22;6.55;;;3.67;;
76256;SDS011;65074;50.436;8.672;2023-09-30T07:01:50;8.30;;;2.95;;
76256;SDS011;65074;50.436;8.672;2023-09-30T07:04:15;5.20;;;3.50;;
76256;SDS011;65074;50.436;8.672;2023-09-30T07:06:40;5.38;;;3.38;;
76256;SDS011;65074;50.436;8.672;2023-09-30T07:09:06;6.07;;;3.63;;
76256;SDS011;65074;50.436;8.672;2023-09-30T07:11:31;6.68;;;3.95;;
76256;SDS011;65074;50.436;8.672;2023-09-30T07:13:59;6.60;;;3.92;;
76256;SDS011;65074;50.436;8.672;2023-09-30T07:16:25;4.32;;;2.42;;
76256;SDS011;65074;50.436;8.672;2023-09-30T07:18:51;5.93;;;3.50;;
76256;SDS011;65074;50.436;8.672;2023-09-30T07:21:16;7.68;;;2.67;;
76256;SDS011;65074;50.436;8.672;2023-09-30T07:23:42;4.15;;;2.75;;
76256;SDS011;65074;50.436;8.672;2023-09-30T07:26:07;8.65;;;3.83;;
76256;SDS011;65074;50.436;8.672;2023-09-30T07:28:33;7.03;;;3.67;;
76256;SDS011;65074;50.436;8.672;2023-09-30T07:30:59;6.20;;;2.90;;
76256;SDS011;65074;50.436;8.672;2023-09-30T07:33:24;5.40;;;3.25;;
76256;SDS011;65074;50.436;8.672;2023-09-30T07:35:50;4.88;;;2.92;;
76256;SDS011;65074;50.436;8.672;2023-09-30T07:38:15;4.80;;;2.92;;
76256;SDS011;65074;50.436;8.672;2023-09-30T07:40:41;6.18;;;3.17;;
76256;SDS011;65074;50.436;8.672;2023-09-30T07:43:07;4.50;;;2.60;;
76256;SDS011;65074;50.436;8.672;2023-09-30T07:45:32;5.43;;;2.78;;
76256;SDS011;65074;50.436;8.672;2023-09-30T07:47:57;4.68;;;2.78;;
76256;SDS011;65074;50.436;8.672;2023-09-30T07:50:23;8.43;;;3.40;;
76256;SDS011;65074;50.436;8.672;2023-09-30T07:52:49;5.47;;;3.08;;
76256;SDS011;65074;50.436;8.672;2023-09-30T07:55:15;4.45;;;2.58;;
76256;SDS011;65074;50.436;8.672;2023-09-30T07:57:41;4.63;;;2.30;;
76256;SDS011;65074;50.436;8.672;2023-09-30T08:00:11;5.60;;;2.85;;
76256;SDS011;65074;50.436;8.672;2023-09-30T08:02:40;5.45;;;3.13;;
76256;SDS011;65074;50.436;8.672;2023-09-30T08:05:07;5.65;;;2.65;;
76256;SDS011;65074;50.436;8.672;2023-09-30T08:07:33;4.88;;;2.97;;
76256;SDS011;65074;50.436;8.672;2023-09-30T08:09:59;6.53;;;3.38;;
76256;SDS011;65074;50.436;8.672;2023-09-30T08:12:24;4.00;;;2.33;;
76256;SDS011;65074;50.436;8.672;2023-09-30T08:14:49;4.90;;;3.10;;
76256;SDS011;65074;50.436;8.672;2023-09-30T08:17:16;6.53;;;3.10;;
76256;SDS011;65074;50.436;8.672;2023-09-30T08:19:42;6.20;;;3.10;;
76256;SDS011;65074;50.436;8.672;2023-09-30T08:22:09;4.07;;;2.42;;
76256;SDS011;65074;50.436;8.672;2023-09-30T08:24:34;6.72;;;2.72;;
76256;SDS011;65074;50.436;8.672;2023-09-30T08:27:00;8.00;;;2.63;;
76256;SDS011;65074;50.436;8.672;2023-09-30T08:29:26;3.97;;;2.28;;
76256;SDS011;65074;50.436;8.672;2023-09-30T08:31:51;3.92;;;2.10;;
76256;SDS011;65074;50.436;8.672;2023-09-30T08:34:16;3.30;;;1.67;;
76256;SDS011;65074;50.436;8.672;2023-09-30T08:36:44;3.30;;;0.98;;
76256;SDS011;65074;50.436;8.672;2023-09-30T08:39:10;1.83;;;1.08;;
76256;SDS011;65074;50.436;8.672;2023-09-30T08:41:35;2.47;;;1.20;;
76256;SDS011;65074;50.436;8.672;2023-09-30T08:44:02;3.53;;;0.93;;
76256;SDS011;65074;50.436;8.672;2023-09-30T08:46:35;5.30;;;1.52;;
76256;SDS011;65074;50.436;8.672;2023-09-30T08:49:02;3.53;;;1.27;;
76256;SDS011;65074;50.436;8.672;2023-09-30T08:51:29;3.22;;;1.35;;
76256;SDS011;65074;50.436;8.672;2023-09-30T08:53:56;3.33;;;1.70;;
76256;SDS011;65074;50.436;8.672;2023-09-30T08:56:27;1.88;;;1.20;;
76256;SDS011;65074;50.436;8.672;2023-09-30T08:58:59;2.00;;;1.17;;
76256;SDS011;65074;50.436;8.672;2023-09-30T09:01:26;5.55;;;1.90;;
76256;SDS011;65074;50.436;8.672;2023-09-30T09:03:53;5.50;;;1.42;;
76256;SDS011;65074;50.436;8.672;2023-09-30T09:06:22;1.48;;;1.08;;
76256;SDS011;65074;50.436;8.672;2023-09-30T09:08:48;2.05;;;1.00;;
76256;SDS011;65074;50.436;8.672;2023-09-30T09:11:14;3.90;;;1.35;;
76256;SDS011;65074;50.436;8.672;2023-09-30T09:13:52;4.60;;;1.20;;
76256;SDS011;65074;50.436;8.672;2023-09-30T09:16:21;1.63;;;0.95;;
76256;SDS011;65074;50.436;8.672;2023-09-30T09:18:48;3.15;;;1.02;;
76256;SDS011;65074;50.436;8.672;2023-09-30T09:21:15;1.98;;;1.20;;
76256;SDS011;65074;50.436;8.672;2023-09-30T09:23:49;2.47;;;1.05;;
76256;SDS011;65074;50.436;8.672;2023-09-30T09:26:26;2.88;;;1.38;;
76256;SDS011;65074;50.436;8.672;2023-09-30T09:28:59;2.65;;;1.45;;
76256;SDS011;65074;50.436;8.672;2023-09-30T09:31:26;3.28;;;0.85;;
76256;SDS011;65074;50.436;8.672;2023-09-30T09:33:53;3.92;;;1.20;;
76256;SDS011;65074;50.436;8.672;2023-09-30T09:36:22;1.90;;;0.98;;
76256;SDS011;65074;50.436;8.672;2023-09-30T09:39:04;2.00;;;0.77;;
76256;SDS011;65074;50.436;8.672;2023-09-30T09:41:29;4.10;;;1.02;;
76256;SDS011;65074;50.436;8.672;2023-09-30T09:43:55;2.03;;;0.90;;
76256;SDS011;65074;50.436;8.672;2023-09-30T09:46:24;1.17;;;0.93;;
76256;SDS011;65074;50.436;8.672;2023-09-30T09:48:50;3.55;;;0.70;;
76256;SDS011;65074;50.436;8.672;2023-09-30T09:51:18;2.92;;;1.10;;
76256;SDS011;65074;50.436;8.672;2023-09-30T09:53:45;3.08;;;1.00;;
76256;SDS011;65074;50.436;8.672;2023-09-30T09:56:14;1.67;;;1.00;;
76256;SDS011;65074;50.436;8.672;2023-09-30T09:58:40;3.30;;;1.42;;
76256;SDS011;65074;50.436;8.672;2023-09-30T10:01:09;5.30;;;1.45;;
76256;SDS011;65074;50.436;8.672;2023-09-30T10:03:35;1.90;;;0.88;;
76256;SDS011;65074;50.436;8.672;2023-09-30T10:06:02;3.40;;;1.63;;
76256;SDS011;65074;50.436;8.672;2023-09-30T10:08:33;1.55;;;1.27;;
76256;SDS011;65074;50.436;8.672;2023-09-30T10:11:02;2.08;;;1.00;;
76256;SDS011;65074;50.436;8.672;2023-09-30T10:19:09;2.85;;;1.10;;
76256;SDS011;65074;50.436;8.672;2023-09-30T10:24:46;2.17;;;1.08;;
76256;SDS011;65074;50.436;8.672;2023-09-30T10:27:35;3.75;;;1.15;;
76256;SDS011;65074;50.436;8.672;2023-09-30T10:35:15;4.72;;;1.08;;
76256;SDS011;65074;50.436;8.672;2023-09-30T10:40:51;1.60;;;1.10;;
76256;SDS011;65074;50.436;8.672;2023-09-30T10:43:33;2.15;;;1.13;;
76256;SDS011;65074;50.436;8.672;2023-09-30T10:46:00;2.65;;;1.15;;
76256;SDS011;65074;50.436;8.672;2023-09-30T10:50:57;2.55;;;0.93;;
76256;SDS011;65074;50.436;8.672;2023-09-30T10:53:25;2.53;;;0.93;;
76256;SDS011;65074;50.436;8.672;2023-09-30T10:55:56;3.35;;;1.33;;
76256;SDS011;65074;50.436;8.672;2023-09-30T10:58:41;2.08;;;1.02;;
76256;SDS011;65074;50.436;8.672;2023-09-30T11:01:08;1.80;;;1.10;;
76256;SDS011;65074;50.436;8.672;2023-09-30T11:03:33;1.15;;;0.60;;
76256;SDS011;65074;50.436;8.672;2023-09-30T11:05:59;2.75;;;1.20;;
76256;SDS011;65074;50.436;8.672;2023-09-30T11:08:25;3.17;;;1.30;;
76256;SDS011;65074;50.436;8.672;2023-09-30T11:10:54;2.00;;;1.05;;
76256;SDS011;65074;50.436;8.672;2023-09-30T11:13:21;2.15;;;1.33;;
76256;SDS011;65074;50.436;8.672;2023-09-30T11:15:47;2.55;;;0.98;;
76256;SDS011;65074;50.436;8.672;2023-09-30T11:18:25;1.52;;;0.90;;
76256;SDS011;65074;50.436;8.672;2023-09-30T11:20:50;2.85;;;1.40;;
76256;SDS011;65074;50.436;8.672;2023-09-30T11:23:29;2.00;;;1.00;;
76256;SDS011;65074;50.436;8.672;2023-09-30T11:25:56;2.28;;;1.35;;
76256;SDS011;65074;50.436;8.672;2023-09-30T11:28:22;2.45;;;1.27;;
76256;SDS011;65074;50.436;8.672;2023-09-30T11:30:57;2.10;;;0.82;;
76256;SDS011;65074;50.436;8.672;2023-09-30T11:33:24;2.03;;;1.02;;
76256;SDS011;65074;50.436;8.672;2023-09-30T11:36:03;0.90;;;0.75;;
76256;SDS011;65074;50.436;8.672;2023-09-30T11:38:31;0.80;;;0.60;;
76256;SDS011;65074;50.436;8.672;2023-09-30T11:41:06;2.55;;;1.23;;
76256;SDS011;65074;50.436;8.672;2023-09-30T11:43:32;3.80;;;1.10;;
76256;SDS011;65074;50.436;8.672;2023-09-30T11:46:08;1.60;;;1.10;;
76256;SDS011;65074;50.436;8.672;2023-09-30T11:48:56;2.13;;;1.15;;
76256;SDS011;65074;50.436;8.672;2023-09-30T11:51:24;1.65;;;1.00;;
76256;SDS011;65074;50.436;8.672;2023-09-30T11:53:51;1.38;;;1.17;;
76256;SDS011;65074;50.436;8.672;2023-09-30T11:56:18;1.02;;;0.65;;
76256;SDS011;65074;50.436;8.672;2023-09-30T11:58:44;2.38;;;1.00;;
76256;SDS011;65074;50.436;8.672;2023-09-30T12:01:11;1.75;;;0.98;;
76256;SDS011;65074;50.436;8.672;2023-09-30T12:03:41;1.42;;;0.85;;
76256;SDS011;65074;50.436;8.672;2023-09-30T12:06:07;0.98;;;0.57;;
76256;SDS011;65074;50.436;8.672;2023-09-30T12:08:33;1.77;;;0.70;;
76256;SDS011;65074;50.436;8.672;2023-09-30T12:10:59;1.77;;;1.08;;
76256;SDS011;65074;50.436;8.672;2023-09-30T12:13:25;1.50;;;0.80;;
76256;SDS011;65074;50.436;8.672;2023-09-30T12:15:51;2.20;;;0.75;;
76256;SDS011;65074;50.436;8.672;2023-09-30T12:18:18;2.25;;;0.95;;
76256;SDS011;65074;50.436;8.672;2023-09-30T12:20:49;1.17;;;0.68;;
76256;SDS011;65074;50.436;8.672;2023-09-30T12:23:15;1.33;;;0.70;;
76256;SDS011;65074;50.436;8.672;2023-09-30T12:25:40;1.55;;;0.40;;
76256;SDS011;65074;50.436;8.672;2023-09-30T12:28:05;1.05;;;0.63;;
76256;SDS011;65074;50.436;8.672;2023-09-30T12:30:31;0.90;;;0.55;;
76256;SDS011;65074;50.436;8.672;2023-09-30T12:32:57;0.90;;;0.52;;
76256;SDS011;65074;50.436;8.672;2023-09-30T12:35:23;1.15;;;0.43;;
76256;SDS011;65074;50.436;8.672;2023-09-30T12:37:48;1.33;;;0.60;;
76256;SDS011;65074;50.436;8.672;2023-09-30T12:40:14;0.98;;;0.40;;
76256;SDS011;65074;50.436;8.672;2023-09-30T12:42:42;0.88;;;0.52;;
76256;SDS011;65074;50.436;8.672;2023-09-30T12:45:08;1.42;;;0.57;;
76256;SDS011;65074;50.436;8.672;2023-09-30T12:47:34;1.05;;;0.43;;
76256;SDS011;65074;50.436;8.672;2023-09-30T12:50:00;1.08;;;0.40;;
76256;SDS011;65074;50.436;8.672;2023-09-30T12:52:25;1.70;;;0.70;;
76256;SDS011;65074;50.436;8.672;2023-09-30T12:54:51;1.60;;;0.60;;
76256;SDS011;65074;50.436;8.672;2023-09-30T12:57:17;0.55;;;0.50;;
76256;SDS011;65074;50.436;8.672;2023-09-30T12:59:46;0.75;;;0.50;;
76256;SDS011;65074;50.436;8.672;2023-09-30T13:04:37;0.60;;;0.50;;
76256;SDS011;65074;50.436;8.672;2023-09-30T13:07:08;1.00;;;0.40;;
76256;SDS011;65074;50.436;8.672;2023-09-30T13:09:40;0.70;;;0.40;;
76256;SDS011;65074;50.436;8.672;2023-09-30T13:12:06;1.48;;;0.40;;
76256;SDS011;65074;50.436;8.672;2023-09-30T13:14:32;0.88;;;0.40;;
76256;SDS011;65074;50.436;8.672;2023-09-30T13:16:58;0.63;;;0.32;;
76256;SDS011;65074;50.436;8.672;2023-09-30T13:19:23;0.40;;;0.40;;
76256;SDS011;65074;50.436;8.672;2023-09-30T13:21:49;0.30;;;0.30;;
76256;SDS011;65074;50.436;8.672;2023-09-30T13:24:15;0.50;;;0.30;;
76256;SDS011;65074;50.436;8.672;2023-09-30T13:26:41;2.17;;;0.70;;
76256;SDS011;65074;50.436;8.672;2023-09-30T13:29:06;1.33;;;0.60;;
76256;SDS011;65074;50.436;8.672;2023-09-30T13:31:34;1.25;;;0.50;;
76256;SDS011;65074;50.436;8.672;2023-09-30T13:34:04;0.95;;;0.40;;
76256;SDS011;65074;50.436;8.672;2023-09-30T13:36:29;1.48;;;0.57;;
76256;SDS011;65074;50.436;8.672;2023-09-30T13:38:55;0.80;;;0.40;;
76256;SDS011;65074;50.436;8.672;2023-09-30T13:41:21;1.33;;;0.52;;
76256;SDS011;65074;50.436;8.672;2023-09-30T13:43:46;1.65;;;0.73;;
76256;SDS011;65074;50.436;8.672;2023-09-30T13:46:11;1.10;;;0.40;;
76256;SDS011;65074;50.436;8.672;2023-09-30T13:48:37;0.75;;;0.43;;
76256;SDS011;65074;50.436;8.672;2023-09-30T13:51:04;1.55;;;0.60;;
76256;SDS011;65074;50.436;8.672;2023-09-30T13:53:30;0.80;;;0.55;;
76256;SDS011;65074;50.436;8.672;2023-09-30T13:56:16;0.50;;;0.50;;
76256;SDS011;65074;50.436;8.672;2023-09-30T14:01:17;1.67;;;0.70;;
76256;SDS011;65074;50.436;8.672;2023-09-30T14:03:45;1.63;;;0.80;;
76256;SDS011;65074;50.436;8.672;2023-09-30T14:06:12;4.05;;;0.80;;
76256;SDS011;65074;50.436;8.672;2023-09-30T14:08:38;2.08;;;1.00;;
76256;SDS011;65074;50.436;8.672;2023-09-30T14:11:03;0.60;;;0.50;;
76256;SDS011;65074;50.436;8.672;2023-09-30T14:13:29;1.40;;;0.60;;
76256;SDS011;65074;50.436;8.672;2023-09-30T14:15:55;1.77;;;0.65;;
76256;SDS011;65074;50.436;8.672;2023-09-30T14:18:21;1.27;;;0.40;;
76256;SDS011;65074;50.436;8.672;2023-09-30T14:20:47;1.60;;;0.73;;
76256;SDS011;65074;50.436;8.672;2023-09-30T14:23:12;0.93;;;0.52;;
76256;SDS011;65074;50.436;8.672;2023-09-30T14:25:38;1.00;;;0.73;;
76256;SDS011;65074;50.436;8.672;2023-09-30T14:28:04;1.30;;;0.57;;
76256;SDS011;65074;50.436;8.672;2023-09-30T14:30:30;1.73;;;0.82;;
76256;SDS011;65074;50.436;8.672;2023-09-30T14:32:57;0.95;;;0.68;;
76256;SDS011;65074;50.436;8.672;2023-09-30T14:35:22;2.25;;;0.70;;
76256;SDS011;65074;50.436;8.672;2023-09-30T14:37:48;1.02;;;0.60;;
76256;SDS011;65074;50.436;8.672;2023-09-30T14:40:13;0.77;;;0.60;;
76256;SDS011;65074;50.436;8.672;2023-09-30T14:42:39;0.75;;;0.70;;
76256;SDS011;65074;50.436;8.672;2023-09-30T14:45:04;1.85;;;0.75;;
76256;SDS011;65074;50.436;8.672;2023-09-30T14:47:30;1.27;;;0.60;;
76256;SDS011;65074;50.436;8.672;2023-09-30T14:49:55;1.48;;;0.57;;
76256;SDS011;65074;50.436;8.672;2023-09-30T14:52:21;1.40;;;0.57;;
76256;SDS011;65074;50.436;8.672;2023-09-30T14:54:46;2.08;;;0.60;;
76256;SDS011;65074;50.436;8.672;2023-09-30T14:57:12;1.30;;;0.73;;
76256;SDS011;65074;50.436;8.672;2023-09-30T14:59:39;1.30;;;0.50;;
76256;SDS011;65074;50.436;8.672;2023-09-30T15:02:05;1.60;;;0.88;;
76256;SDS011;65074;50.436;8.672;2023-09-30T15:04:33;0.98;;;0.50;;
76256;SDS011;65074;50.436;8.672;2023-09-30T15:06:59;1.77;;;0.73;;
76256;SDS011;65074;50.436;8.672;2023-09-30T15:09:25;1.75;;;0.80;;
76256;SDS011;65074;50.436;8.672;2023-09-30T15:11:52;1.40;;;0.57;;
76256;SDS011;65074;50.436;8.672;2023-09-30T15:14:17;0.40;;;0.30;;